createdAt,value
2023-05-03T00:01:44.004Z,66.40
2023-05-03T00:04:11.019Z,66.30
2023-05-03T00:06:37.933Z,66.40
2023-05-03T00:09:04.806Z,66.40
2023-05-03T00:11:31.667Z,66.40
2023-05-03T00:13:58.515Z,66.30
2023-05-03T00:16:25.321Z,66.30
2023-05-03T00:18:52.183Z,66.40
2023-05-03T00:21:19.045Z,66.20
2023-05-03T00:23:45.877Z,66.20
2023-05-03T00:26:12.670Z,66.10
2023-05-03T00:28:39.515Z,65.90
2023-05-03T00:31:11.302Z,66.00
2023-05-03T00:33:38.876Z,66.20
2023-05-03T00:36:10.243Z,66.30
2023-05-03T00:38:37.417Z,66.30
2023-05-03T00:41:05.096Z,66.30
2023-05-03T00:43:32.368Z,66.50
2023-05-03T00:46:08.707Z,66.50
2023-05-03T00:48:42.551Z,66.70
2023-05-03T00:51:12.472Z,66.90
2023-05-03T00:53:39.297Z,66.90
2023-05-03T00:56:07.058Z,67.10
2023-05-03T00:58:36.258Z,67.10
2023-05-03T01:01:03.470Z,67.70
2023-05-03T01:03:30.607Z,67.20
2023-05-03T01:06:23.860Z,67.30
2023-05-03T01:09:28.982Z,67.60
2023-05-03T01:12:08.657Z,67.90
2023-05-03T01:14:50.438Z,68.20
2023-05-03T01:17:25.418Z,68.20
2023-05-03T01:19:57.997Z,68.30
2023-05-03T01:22:50.601Z,68.40
2023-05-03T01:25:17.515Z,68.70
2023-05-03T01:27:44.354Z,68.70
2023-05-03T01:30:12.620Z,68.80
2023-05-03T01:32:48.387Z,68.90
2023-05-03T01:35:30.394Z,68.90
2023-05-03T01:37:58.166Z,69.00
2023-05-03T01:40:28.092Z,69.20
2023-05-03T01:42:56.728Z,69.20
2023-05-03T01:45:23.954Z,69.30
2023-05-03T01:47:50.813Z,69.40
2023-05-03T01:50:17.700Z,69.50
2023-05-03T01:52:45.298Z,69.40
2023-05-03T01:55:12.154Z,69.40
2023-05-03T01:57:38.926Z,69.60
2023-05-03T02:00:07.110Z,69.50
2023-05-03T02:02:33.998Z,69.80
2023-05-03T02:05:01.077Z,69.80
2023-05-03T02:07:28.122Z,70.00
2023-05-03T02:09:54.988Z,70.00
2023-05-03T02:12:21.927Z,70.10
2023-05-03T02:14:48.756Z,70.30
2023-05-03T02:17:19.018Z,70.30
2023-05-03T02:19:45.831Z,70.60
2023-05-03T02:22:12.724Z,70.70
2023-05-03T02:24:40.107Z,71.00
2023-05-03T02:27:06.919Z,71.10
2023-05-03T02:29:34.152Z,71.20
2023-05-03T02:32:01.060Z,71.40
2023-05-03T02:34:28.050Z,71.50
2023-05-03T02:36:54.867Z,71.70
2023-05-03T02:39:21.714Z,71.80
2023-05-03T02:41:48.545Z,72.10
2023-05-03T02:44:15.441Z,72.30
2023-05-03T02:46:42.525Z,72.50
2023-05-03T02:49:09.902Z,72.50
2023-05-03T02:51:36.742Z,72.60
2023-05-03T02:54:03.643Z,72.60
2023-05-03T02:56:30.453Z,72.60
2023-05-03T02:58:57.272Z,72.50
2023-05-03T03:01:24.078Z,72.60
2023-05-03T03:03:50.965Z,72.80
2023-05-03T03:06:18.050Z,73.10
2023-05-03T03:08:44.867Z,72.90
2023-05-03T03:11:11.669Z,73.10
2023-05-03T03:13:39.908Z,73.30
2023-05-03T03:16:10.337Z,73.20
2023-05-03T03:18:37.610Z,73.20
2023-05-03T03:21:04.908Z,73.20
2023-05-03T03:23:31.784Z,73.20
2023-05-03T03:25:58.658Z,73.10
2023-05-03T03:28:25.739Z,73.30
2023-05-03T03:30:52.650Z,73.30
2023-05-03T03:33:22.128Z,73.10
2023-05-03T03:35:50.563Z,73.30
2023-05-03T03:38:17.352Z,73.30
2023-05-03T03:40:44.402Z,73.20
2023-05-03T03:43:11.385Z,73.10
2023-05-03T03:45:38.191Z,73.00
2023-05-03T03:48:05.375Z,72.80
2023-05-03T03:50:32.258Z,72.80
2023-05-03T03:52:59.049Z,72.50
2023-05-03T03:55:25.820Z,72.10
2023-05-03T03:57:52.675Z,71.30
2023-05-03T04:00:19.917Z,70.50
2023-05-03T04:02:47.287Z,69.80
2023-05-03T04:05:14.574Z,69.80
2023-05-03T04:07:41.348Z,69.70
2023-05-03T04:10:08.827Z,69.40
2023-05-03T04:12:35.664Z,69.40
2023-05-03T04:15:02.609Z,68.90
2023-05-03T04:17:29.552Z,68.60
2023-05-03T04:19:56.607Z,67.50
2023-05-03T04:22:23.521Z,66.40
2023-05-03T04:24:50.566Z,65.30
2023-05-03T04:27:18.232Z,64.40
2023-05-03T04:29:45.112Z,63.70
2023-05-03T04:32:14.672Z,62.90
2023-05-03T04:34:42.441Z,62.20
2023-05-03T04:37:09.738Z,61.50
2023-05-03T04:39:36.580Z,61.10
2023-05-03T04:42:04.020Z,60.70
2023-05-03T04:44:30.887Z,60.50
2023-05-03T04:46:57.699Z,60.10
2023-05-03T04:49:24.522Z,59.80
2023-05-03T04:51:51.321Z,57.90
2023-05-03T04:54:18.168Z,57.50
2023-05-03T04:56:45.049Z,57.10
2023-05-03T04:59:12.547Z,56.90
2023-05-03T05:01:39.848Z,56.90
2023-05-03T05:04:06.855Z,56.50
2023-05-03T05:06:33.793Z,56.40
2023-05-03T05:09:00.683Z,56.40
2023-05-03T05:11:27.790Z,56.60
2023-05-03T05:13:54.560Z,56.50
2023-05-03T05:16:22.165Z,56.30
2023-05-03T05:18:49.085Z,56.20
2023-05-03T05:21:16.128Z,55.80
2023-05-03T05:23:42.870Z,55.50
2023-05-03T05:26:10.185Z,55.60
2023-05-03T05:28:36.965Z,55.70
2023-05-03T05:31:03.745Z,55.20
2023-05-03T05:33:30.632Z,54.50
2023-05-03T05:35:57.506Z,53.90
2023-05-03T05:38:24.482Z,53.70
2023-05-03T05:40:51.297Z,53.40
2023-05-03T05:43:18.108Z,52.70
2023-05-03T05:45:44.978Z,52.40
2023-05-03T05:48:11.878Z,52.10
2023-05-03T05:50:38.752Z,51.80
2023-05-03T05:53:05.725Z,51.70
2023-05-03T05:55:32.591Z,52.10
2023-05-03T05:57:59.535Z,52.10
2023-05-03T06:00:26.378Z,52.00
2023-05-03T06:02:53.272Z,52.30
2023-05-03T06:05:20.802Z,52.00
2023-05-03T06:07:48.124Z,51.50
2023-05-03T06:10:15.077Z,51.20
2023-05-03T06:12:41.880Z,52.10
2023-05-03T06:15:09.729Z,51.90
2023-05-03T06:17:36.706Z,51.40
2023-05-03T06:20:05.058Z,51.00
2023-05-03T06:22:32.155Z,50.80
2023-05-03T06:24:59.110Z,50.90
2023-05-03T06:27:26.074Z,50.40
2023-05-03T06:29:52.944Z,50.30
2023-05-03T06:32:19.867Z,50.20
2023-05-03T06:34:46.660Z,50.40
2023-05-03T06:37:14.089Z,51.10
2023-05-03T06:39:40.924Z,50.60
2023-05-03T06:42:07.947Z,50.10
2023-05-03T06:44:34.884Z,49.90
2023-05-03T06:47:01.908Z,50.00
2023-05-03T06:49:28.747Z,49.00
2023-05-03T06:51:55.935Z,48.80
2023-05-03T06:54:22.798Z,48.30
2023-05-03T06:56:49.613Z,48.10
2023-05-03T06:59:16.870Z,48.80
2023-05-03T07:01:43.937Z,48.90
2023-05-03T07:04:10.967Z,49.10
2023-05-03T07:06:52.508Z,48.50
2023-05-03T07:09:35.343Z,48.00
2023-05-03T07:12:08.889Z,47.60
2023-05-03T07:14:35.922Z,46.80
2023-05-03T07:17:02.795Z,47.20
2023-05-03T07:19:30.196Z,47.40
2023-05-03T07:21:57.170Z,47.80
2023-05-03T07:24:26.114Z,47.90
2023-05-03T07:26:53.719Z,48.10
2023-05-03T07:29:21.143Z,48.30
2023-05-03T07:31:48.062Z,47.90
2023-05-03T07:34:14.977Z,48.30
2023-05-03T07:36:41.910Z,48.10
2023-05-03T07:39:08.738Z,47.90
2023-05-03T07:41:35.633Z,48.60
2023-05-03T07:44:02.484Z,49.40
2023-05-03T07:46:34.837Z,50.20
2023-05-03T07:49:05.529Z,50.70
2023-05-03T07:51:36.495Z,50.00
2023-05-03T07:54:04.262Z,49.50
2023-05-03T07:56:31.737Z,49.60
2023-05-03T07:59:08.451Z,49.90
2023-05-03T08:01:36.717Z,49.90
2023-05-03T08:04:04.719Z,49.60
2023-05-03T08:06:32.730Z,49.40
2023-05-03T08:08:59.734Z,49.80
2023-05-03T08:11:28.975Z,50.40
2023-05-03T08:13:56.555Z,50.70
2023-05-03T08:16:23.498Z,51.00
2023-05-03T08:18:50.401Z,51.00
2023-05-03T08:21:17.681Z,51.10
2023-05-03T08:23:45.192Z,51.60
2023-05-03T08:26:14.202Z,51.00
2023-05-03T08:28:41.574Z,51.30
2023-05-03T08:31:08.988Z,51.60
2023-05-03T08:33:36.068Z,51.50
2023-05-03T08:36:03.300Z,51.60
2023-05-03T08:38:30.349Z,52.20
2023-05-03T08:40:59.707Z,52.70
2023-05-03T08:43:28.717Z,53.20
2023-05-03T08:45:55.793Z,53.20
2023-05-03T08:48:23.241Z,53.00
2023-05-03T08:50:51.750Z,52.90
2023-05-03T08:53:18.682Z,52.90
2023-05-03T08:55:45.908Z,52.80
2023-05-03T08:58:13.636Z,53.20
2023-05-03T09:00:44.855Z,53.20
2023-05-03T09:03:12.596Z,53.40
2023-05-03T09:05:41.211Z,53.20
2023-05-03T09:08:10.385Z,53.20
2023-05-03T09:10:39.701Z,52.90
2023-05-03T09:13:07.773Z,53.00
2023-05-03T09:15:35.544Z,53.20
2023-05-03T09:18:13.794Z,53.40
2023-05-03T09:20:41.926Z,53.50
2023-05-03T09:23:09.884Z,53.40
2023-05-03T09:25:51.353Z,53.40
2023-05-03T09:28:20.028Z,53.90
2023-05-03T09:30:48.245Z,53.90
2023-05-03T09:33:22.378Z,53.70
2023-05-03T09:36:03.711Z,53.80
2023-05-03T09:38:33.615Z,53.70
2023-05-03T09:41:01.564Z,53.80
2023-05-03T09:43:28.826Z,54.20
2023-05-03T09:46:13.000Z,54.20
2023-05-03T09:48:41.976Z,54.40
2023-05-03T09:51:09.864Z,54.40
2023-05-03T09:53:38.300Z,54.40
2023-05-03T09:56:12.905Z,54.50
2023-05-03T09:58:41.238Z,54.00
2023-05-03T10:01:10.326Z,53.90
2023-05-03T10:03:45.364Z,53.90
2023-05-03T10:06:25.137Z,54.10
2023-05-03T10:09:05.712Z,54.30
2023-05-03T10:11:36.318Z,54.20
2023-05-03T10:14:05.573Z,54.40
2023-05-03T10:16:38.926Z,54.80
2023-05-03T10:19:14.653Z,54.60
2023-05-03T10:21:59.778Z,54.60
2023-05-03T10:24:26.613Z,54.40
2023-05-03T10:26:55.743Z,54.70
2023-05-03T10:29:35.073Z,54.30
2023-05-03T10:32:03.288Z,54.20
2023-05-03T10:34:34.278Z,54.30
2023-05-03T10:37:10.530Z,53.70
2023-05-03T10:39:37.797Z,54.00
2023-05-03T10:42:09.126Z,54.00
2023-05-03T10:44:40.519Z,53.90
2023-05-03T10:47:18.432Z,54.10
2023-05-03T10:49:46.098Z,54.50
2023-05-03T10:52:40.857Z,54.40
2023-05-03T10:55:13.893Z,54.10
2023-05-03T10:57:42.728Z,54.00
2023-05-03T11:00:14.081Z,53.50
2023-05-03T11:03:03.918Z,53.00
2023-05-03T11:05:31.604Z,53.20
2023-05-03T11:08:21.589Z,53.50
2023-05-03T11:10:59.354Z,53.60
2023-05-03T11:13:26.842Z,53.80
2023-05-03T11:15:55.181Z,53.50
2023-05-03T11:18:22.998Z,53.30
2023-05-03T11:20:50.205Z,53.60
2023-05-03T11:23:16.946Z,53.50
2023-05-03T11:25:43.735Z,53.30
2023-05-03T11:28:10.716Z,53.30
2023-05-03T11:30:37.760Z,53.40
2023-05-03T11:33:04.775Z,53.40
2023-05-03T11:35:33.106Z,53.40
2023-05-03T11:38:00.161Z,53.40
2023-05-03T11:40:27.851Z,53.60
2023-05-03T11:43:01.197Z,53.70
2023-05-03T11:45:38.361Z,53.70
2023-05-03T11:48:05.925Z,53.90
2023-05-03T11:50:55.439Z,53.70
2023-05-03T11:53:23.757Z,53.90
2023-05-03T11:55:54.937Z,53.00
2023-05-03T11:58:26.686Z,53.00
2023-05-03T12:00:55.870Z,53.20
2023-05-03T12:03:30.821Z,54.10
2023-05-03T12:05:59.734Z,53.20
2023-05-03T12:08:34.516Z,53.20
2023-05-03T12:11:06.443Z,53.20
2023-05-03T12:13:39.616Z,53.40
2023-05-03T12:18:58.779Z,53.80
2023-05-03T12:21:54.968Z,53.80
2023-05-03T12:24:28.712Z,54.30
2023-05-03T12:26:57.307Z,54.40
2023-05-03T12:29:24.959Z,54.70
2023-05-03T12:31:52.671Z,54.80
2023-05-03T12:34:33.723Z,54.80
2023-05-03T12:37:04.764Z,55.10
2023-05-03T12:39:33.059Z,55.00
2023-05-03T12:44:34.424Z,54.30
2023-05-03T12:47:02.622Z,54.20
2023-05-03T12:49:30.138Z,54.20
2023-05-03T12:54:33.435Z,54.40
2023-05-03T12:57:08.493Z,54.30
2023-05-03T12:59:42.346Z,54.40
2023-05-03T13:04:57.781Z,54.50
2023-05-03T13:07:32.035Z,54.60
2023-05-03T13:12:30.975Z,54.60
2023-05-03T13:14:58.126Z,54.60
2023-05-03T13:17:25.366Z,54.90
2023-05-03T13:19:53.192Z,54.60
2023-05-03T13:22:20.006Z,54.60
2023-05-03T13:24:47.791Z,54.50
2023-05-03T13:27:16.404Z,54.30
2023-05-03T13:29:43.273Z,54.60
2023-05-03T13:32:10.632Z,54.60
2023-05-03T13:34:37.550Z,54.40
2023-05-03T13:37:04.821Z,54.70
2023-05-03T13:39:32.364Z,55.50
2023-05-03T13:41:59.497Z,54.50
2023-05-03T13:44:26.470Z,54.60
2023-05-03T13:46:53.898Z,54.90
2023-05-03T13:49:20.995Z,54.60
2023-05-03T13:51:48.077Z,54.80
2023-05-03T13:54:15.018Z,55.20
2023-05-03T13:56:42.940Z,55.70
2023-05-03T13:59:12.440Z,56.00
2023-05-03T14:01:40.373Z,56.20
2023-05-03T14:04:07.381Z,56.10
2023-05-03T14:06:34.364Z,56.10
2023-05-03T14:09:02.011Z,56.20
2023-05-03T14:11:31.134Z,56.80
2023-05-03T14:13:58.994Z,57.20
2023-05-03T14:18:57.460Z,57.20
2023-05-03T14:21:24.609Z,57.20
2023-05-03T14:23:51.717Z,57.20
2023-05-03T14:26:20.067Z,57.30
2023-05-03T14:28:47.151Z,57.40
2023-05-03T14:31:14.011Z,57.40
2023-05-03T14:33:40.822Z,57.60
2023-05-03T14:36:10.827Z,57.70
2023-05-03T14:38:37.696Z,58.10
2023-05-03T14:41:04.875Z,58.10
2023-05-03T14:43:32.364Z,58.20
2023-05-03T14:45:59.199Z,57.80
2023-05-03T14:48:26.221Z,58.10
2023-05-03T14:50:53.489Z,58.50
2023-05-03T14:53:21.878Z,58.70
2023-05-03T14:55:48.747Z,59.10
2023-05-03T14:58:16.006Z,59.20
2023-05-03T15:00:43.501Z,59.10
2023-05-03T15:03:11.996Z,59.10
2023-05-03T15:05:49.420Z,59.20
2023-05-03T15:08:19.350Z,59.30
2023-05-03T15:10:47.822Z,59.60
2023-05-03T15:13:16.317Z,59.60
2023-05-03T15:15:44.318Z,60.30
2023-05-03T15:18:11.629Z,59.70
2023-05-03T15:20:39.136Z,60.00
2023-05-03T15:23:06.233Z,60.10
2023-05-03T15:25:33.173Z,60.10
2023-05-03T15:28:03.797Z,60.00
2023-05-03T15:30:32.113Z,60.00
2023-05-03T15:32:59.115Z,60.20
2023-05-03T15:35:26.197Z,60.40
2023-05-03T15:37:53.213Z,60.90
2023-05-03T15:40:23.777Z,61.10
2023-05-03T15:42:52.325Z,61.00
2023-05-03T15:45:19.496Z,60.90
2023-05-03T15:47:46.452Z,61.00
2023-05-03T15:50:13.924Z,61.30
2023-05-03T15:52:42.214Z,61.50
2023-05-03T15:55:09.889Z,62.00
2023-05-03T15:57:37.532Z,62.20
2023-05-03T16:00:09.362Z,62.30
2023-05-03T16:02:36.145Z,62.30
2023-05-03T16:05:03.113Z,62.50
2023-05-03T16:07:30.092Z,62.60
2023-05-03T16:09:57.085Z,62.80
2023-05-03T16:12:24.532Z,63.00
2023-05-03T16:14:51.376Z,63.00
2023-05-03T16:17:18.394Z,63.10
2023-05-03T16:19:45.195Z,63.20
2023-05-03T16:22:12.105Z,63.60
2023-05-03T16:24:39.205Z,63.80
2023-05-03T16:27:06.316Z,63.80
2023-05-03T16:29:34.748Z,63.80
2023-05-03T16:32:01.883Z,63.80
2023-05-03T16:34:28.796Z,64.00
2023-05-03T16:36:55.754Z,64.00
2023-05-03T16:39:22.714Z,64.30
2023-05-03T16:41:49.512Z,64.20
2023-05-03T16:44:18.550Z,64.60
2023-05-03T16:46:46.451Z,65.10
2023-05-03T16:49:13.327Z,65.20
2023-05-03T16:51:41.186Z,65.60
2023-05-03T16:54:08.082Z,65.90
2023-05-03T16:56:34.973Z,66.00
2023-05-03T16:59:03.684Z,65.50
2023-05-03T17:01:30.521Z,65.30
2023-05-03T17:03:57.454Z,65.20
2023-05-03T17:06:24.311Z,65.70
2023-05-03T17:08:51.521Z,66.10
2023-05-03T17:11:18.550Z,66.30
2023-05-03T17:13:45.567Z,66.20
2023-05-03T17:16:15.218Z,66.30
2023-05-03T17:18:42.938Z,66.20
2023-05-03T17:21:11.184Z,66.10
2023-05-03T17:23:39.441Z,66.40
2023-05-03T17:26:08.927Z,66.30
2023-05-03T17:28:36.578Z,66.20
2023-05-03T17:31:08.924Z,67.10
2023-05-03T17:33:36.330Z,67.60
2023-05-03T17:36:05.038Z,68.00
2023-05-03T17:38:34.158Z,69.30
2023-05-03T17:41:08.674Z,69.70
2023-05-03T17:43:36.616Z,71.40
2023-05-03T17:46:12.200Z,72.00
2023-05-03T17:48:40.028Z,73.30
2023-05-03T17:51:09.669Z,74.70
2023-05-03T17:53:36.516Z,75.90
2023-05-03T17:56:03.391Z,77.80
2023-05-03T17:58:30.210Z,79.90
2023-05-03T18:00:57.627Z,81.30
2023-05-03T18:03:25.732Z,82.60
2023-05-03T18:05:53.066Z,84.30
2023-05-03T18:08:19.929Z,85.20
2023-05-03T18:10:47.031Z,86.30
2023-05-03T18:13:13.982Z,87.70
2023-05-03T18:15:41.868Z,88.70
2023-05-03T18:18:09.468Z,90.10
2023-05-03T18:20:36.483Z,90.70
2023-05-03T18:23:03.828Z,91.60
2023-05-03T18:25:30.653Z,92.20
2023-05-03T18:27:57.798Z,93.00
2023-05-03T18:30:28.023Z,93.90
2023-05-03T18:32:55.912Z,94.40
2023-05-03T18:35:23.198Z,95.10
2023-05-03T18:37:50.127Z,95.80
2023-05-03T18:40:17.143Z,96.30
2023-05-03T18:42:44.162Z,97.20
2023-05-03T18:45:11.796Z,97.50
2023-05-03T18:47:38.692Z,98.00
2023-05-03T18:50:06.324Z,98.40
2023-05-03T18:52:33.402Z,98.90
2023-05-03T18:55:00.563Z,99.30
2023-05-03T18:57:27.355Z,99.90
2023-05-03T19:00:01.090Z,99.90
2023-05-03T19:02:31.142Z,99.90
2023-05-03T19:04:59.133Z,99.90
2023-05-03T19:07:26.070Z,99.90
2023-05-03T19:09:54.151Z,99.90
2023-05-03T19:12:20.994Z,99.90
2023-05-03T19:14:47.774Z,99.90
2023-05-03T19:17:14.586Z,99.90
2023-05-03T19:19:41.436Z,99.90
2023-05-03T19:22:08.213Z,99.90
2023-05-03T19:24:35.009Z,99.90
2023-05-03T19:27:02.282Z,99.90
2023-05-03T19:29:29.736Z,99.90
2023-05-03T19:31:56.546Z,99.90
2023-05-03T19:34:23.394Z,99.90
2023-05-03T19:36:50.340Z,99.90
2023-05-03T19:39:17.145Z,99.90
2023-05-03T19:41:44.173Z,99.90
2023-05-03T19:44:11.100Z,99.90
2023-05-03T19:46:38.011Z,99.90
2023-05-03T19:49:05.020Z,99.90
2023-05-03T19:51:32.845Z,99.90
2023-05-03T19:54:03.173Z,99.90
2023-05-03T19:56:30.154Z,99.90
2023-05-03T19:58:57.270Z,99.90
2023-05-03T20:01:24.178Z,99.90
2023-05-03T20:03:53.444Z,99.90
2023-05-03T20:06:20.724Z,99.90
2023-05-03T20:08:47.577Z,99.90
2023-05-03T20:11:14.486Z,99.90
2023-05-03T20:13:41.288Z,99.90
2023-05-03T20:16:08.556Z,99.90
2023-05-03T20:18:35.592Z,99.90
2023-05-03T20:21:03.769Z,99.90
2023-05-03T20:23:30.666Z,99.90
2023-05-03T20:25:57.632Z,99.90
2023-05-03T20:28:24.639Z,99.90
2023-05-03T20:30:51.704Z,99.90
2023-05-03T20:33:18.586Z,99.90
2023-05-03T20:35:45.499Z,99.90
2023-05-03T20:38:12.290Z,99.90
2023-05-03T20:40:39.197Z,99.90
2023-05-03T20:43:06.822Z,99.90
2023-05-03T20:45:33.744Z,99.90
2023-05-03T20:48:00.655Z,99.90
2023-05-03T20:50:27.487Z,99.90
2023-05-03T20:52:55.423Z,99.90
2023-05-03T20:55:22.679Z,99.90
2023-05-03T20:57:49.448Z,99.90
2023-05-03T21:00:16.407Z,99.90
2023-05-03T21:02:43.479Z,99.90
2023-05-03T21:05:11.396Z,99.90
2023-05-03T21:07:38.647Z,99.90
2023-05-03T21:10:07.141Z,99.90
2023-05-03T21:12:34.830Z,99.90
2023-05-03T21:15:01.978Z,99.90
2023-05-03T21:17:28.949Z,99.90
2023-05-03T21:19:55.861Z,99.90
2023-05-03T21:22:22.757Z,99.90
2023-05-03T21:24:50.170Z,99.90
2023-05-03T21:27:19.161Z,99.90
2023-05-03T21:29:46.335Z,99.90
2023-05-03T21:32:13.347Z,99.90
2023-05-03T21:34:40.188Z,99.90
2023-05-03T21:37:07.288Z,99.90
2023-05-03T21:39:34.426Z,99.90
2023-05-03T21:42:01.215Z,99.90
2023-05-03T21:44:28.059Z,99.90
2023-05-03T21:46:55.013Z,99.90
2023-05-03T21:49:22.165Z,99.90
2023-05-03T21:51:48.966Z,99.90
2023-05-03T21:54:17.187Z,99.90
2023-05-03T21:56:44.037Z,99.90
2023-05-03T21:59:10.889Z,99.90
2023-05-03T22:01:38.120Z,99.90
2023-05-03T22:04:05.662Z,99.90
2023-05-03T22:06:32.696Z,99.90
2023-05-03T22:08:59.837Z,99.90
2023-05-03T22:11:26.635Z,99.90
2023-05-03T22:14:06.796Z,99.90
2023-05-03T22:16:35.190Z,99.90
2023-05-03T22:19:02.097Z,99.90
2023-05-03T22:21:28.886Z,99.90
2023-05-03T22:23:55.714Z,99.90
2023-05-03T22:26:22.505Z,99.90
2023-05-03T22:28:49.439Z,99.90
2023-05-03T22:31:16.473Z,99.90
2023-05-03T22:33:44.996Z,99.90
2023-05-03T22:36:12.946Z,99.90
2023-05-03T22:38:42.622Z,99.90
2023-05-03T22:41:09.873Z,99.90
2023-05-03T22:43:37.045Z,99.90
2023-05-03T22:46:04.196Z,99.90
2023-05-03T22:48:32.501Z,99.90
2023-05-03T22:50:59.911Z,99.90
2023-05-03T22:53:26.845Z,99.90
2023-05-03T22:56:01.653Z,99.90
2023-05-03T22:58:28.919Z,99.90
2023-05-03T23:00:56.541Z,99.90
2023-05-03T23:03:23.525Z,99.90
2023-05-03T23:05:53.081Z,99.90
2023-05-03T23:08:20.835Z,99.90
2023-05-03T23:10:47.717Z,99.90
2023-05-03T23:13:14.657Z,99.90
2023-05-03T23:15:41.575Z,99.90
2023-05-03T23:18:08.646Z,99.90
2023-05-03T23:20:35.585Z,99.90
2023-05-03T23:23:02.446Z,99.90
2023-05-03T23:25:29.670Z,99.90
2023-05-03T23:27:56.715Z,99.90
2023-05-03T23:30:24.057Z,99.90
2023-05-03T23:32:51.504Z,99.90
2023-05-03T23:35:19.662Z,99.90
2023-05-03T23:37:46.524Z,99.90
2023-05-03T23:40:13.370Z,99.90
2023-05-03T23:42:41.387Z,99.90
2023-05-03T23:45:09.667Z,99.90
2023-05-03T23:47:37.033Z,99.90
2023-05-03T23:50:04.753Z,99.90
2023-05-03T23:52:31.919Z,99.90
2023-05-03T23:54:58.695Z,99.90
2023-05-03T23:57:25.820Z,99.90
2023-05-03T23:59:52.639Z,99.90
